sensor_id;sensor_type;location;lat;lon;timestamp;temperature;humidity
9544;DHT22;30418;51.45933468;7.33152330;2023-06-14T00:00:22;26.00;31.30
9544;DHT22;30418;51.45933468;7.33152330;2023-06-14T00:02:51;25.90;31.30
9544;DHT22;30418;51.45933468;7.33152330;2023-06-14T00:05:23;25.90;31.50
9544;DHT22;30418;51.45933468;7.33152330;2023-06-14T00:07:51;25.90;31.60
9544;DHT22;30418;51.45933468;7.33152330;2023-06-14T00:10:21;25.90;31.60
9544;DHT22;30418;51.45933468;7.33152330;2023-06-14T00:12:51;25.80;31.70
9544;DHT22;30418;51.45933468;7.33152330;2023-06-14T00:15:19;25.70;31.70
9544;DHT22;30418;51.45933468;7.33152330;2023-06-14T00:17:49;25.70;31.80
9544;DHT22;30418;51.45933468;7.33152330;2023-06-14T00:20:18;25.70;32.00
9544;DHT22;30418;51.45933468;7.33152330;2023-06-14T00:22:47;25.70;32.00
9544;DHT22;30418;51.45933468;7.33152330;2023-06-14T00:25:16;25.70;32.10
9544;DHT22;30418;51.45933468;7.33152330;2023-06-14T00:27:56;25.60;32.10
9544;DHT22;30418;51.45933468;7.33152330;2023-06-14T00:30:25;25.60;32.10
9544;DHT22;30418;51.45933468;7.33152330;2023-06-14T00:32:59;25.60;32.30
9544;DHT22;30418;51.45933468;7.33152330;2023-06-14T00:35:28;25.50;32.30
9544;DHT22;30418;51.45933468;7.33152330;2023-06-14T00:37:57;25.50;32.30
9544;DHT22;30418;51.45933468;7.33152330;2023-06-14T00:40:26;25.40;32.40
9544;DHT22;30418;51.45933468;7.33152330;2023-06-14T00:42:55;25.40;32.40
9544;DHT22;30418;51.45933468;7.33152330;2023-06-14T00:45:24;25.40;32.60
9544;DHT22;30418;51.45933468;7.33152330;2023-06-14T00:47:53;25.40;32.60
9544;DHT22;30418;51.45933468;7.33152330;2023-06-14T00:50:24;25.40;32.70
9544;DHT22;30418;51.45933468;7.33152330;2023-06-14T00:52:53;25.40;32.80
9544;DHT22;30418;51.45933468;7.33152330;2023-06-14T00:55:22;25.30;32.70
9544;DHT22;30418;51.45933468;7.33152330;2023-06-14T00:57:50;25.30;32.70
9544;DHT22;30418;51.45933468;7.33152330;2023-06-14T01:00:19;25.30;32.90
9544;DHT22;30418;51.45933468;7.33152330;2023-06-14T01:02:54;25.30;32.90
9544;DHT22;30418;51.45933468;7.33152330;2023-06-14T01:05:25;25.20;32.90
9544;DHT22;30418;51.45933468;7.33152330;2023-06-14T01:08:14;25.20;33.00
9544;DHT22;30418;51.45933468;7.33152330;2023-06-14T01:10:56;25.20;33.40
9544;DHT22;30418;51.45933468;7.33152330;2023-06-14T01:13:33;25.10;33.30
9544;DHT22;30418;51.45933468;7.33152330;2023-06-14T01:16:03;25.10;33.30
9544;DHT22;30418;51.45933468;7.33152330;2023-06-14T01:18:33;25.10;33.20
9544;DHT22;30418;51.45933468;7.33152330;2023-06-14T01:21:04;25.00;33.20
9544;DHT22;30418;51.45933468;7.33152330;2023-06-14T01:23:34;25.00;33.40
9544;DHT22;30418;51.45933468;7.33152330;2023-06-14T01:26:03;24.90;33.30
9544;DHT22;30418;51.45933468;7.33152330;2023-06-14T01:28:34;24.90;34.00
9544;DHT22;30418;51.45933468;7.33152330;2023-06-14T01:31:04;24.80;33.40
9544;DHT22;30418;51.45933468;7.33152330;2023-06-14T01:33:36;24.80;33.50
9544;DHT22;30418;51.45933468;7.33152330;2023-06-14T01:36:05;24.80;33.60
9544;DHT22;30418;51.45933468;7.33152330;2023-06-14T01:38:37;24.70;33.50
9544;DHT22;30418;51.45933468;7.33152330;2023-06-14T01:41:06;24.70;33.60
9544;DHT22;30418;51.45933468;7.33152330;2023-06-14T01:43:35;24.70;33.60
9544;DHT22;30418;51.45933468;7.33152330;2023-06-14T01:46:06;24.70;33.70
9544;DHT22;30418;51.45933468;7.33152330;2023-06-14T01:48:35;24.60;33.80
9544;DHT22;30418;51.45933468;7.33152330;2023-06-14T01:51:04;24.60;33.70
9544;DHT22;30418;51.45933468;7.33152330;2023-06-14T01:53:32;24.60;33.80
9544;DHT22;30418;51.45933468;7.33152330;2023-06-14T01:56:05;24.50;33.80
9544;DHT22;30418;51.45933468;7.33152330;2023-06-14T01:58:34;24.40;33.80
9544;DHT22;30418;51.45933468;7.33152330;2023-06-14T02:01:03;24.40;33.80
9544;DHT22;30418;51.45933468;7.33152330;2023-06-14T02:03:32;24.40;33.90
9544;DHT22;30418;51.45933468;7.33152330;2023-06-14T02:06:01;24.30;34.00
9544;DHT22;30418;51.45933468;7.33152330;2023-06-14T02:08:30;24.30;34.00
9544;DHT22;30418;51.45933468;7.33152330;2023-06-14T02:11:00;24.30;34.00
9544;DHT22;30418;51.45933468;7.33152330;2023-06-14T02:13:30;24.30;34.20
9544;DHT22;30418;51.45933468;7.33152330;2023-06-14T02:15:58;24.20;34.20
9544;DHT22;30418;51.45933468;7.33152330;2023-06-14T02:18:28;24.20;34.20
9544;DHT22;30418;51.45933468;7.33152330;2023-06-14T02:20:57;24.20;34.20
9544;DHT22;30418;51.45933468;7.33152330;2023-06-14T02:23:26;24.20;34.30
9544;DHT22;30418;51.45933468;7.33152330;2023-06-14T02:25:55;24.10;34.20
9544;DHT22;30418;51.45933468;7.33152330;2023-06-14T02:28:24;24.10;34.20
9544;DHT22;30418;51.45933468;7.33152330;2023-06-14T02:30:54;24.10;34.20
9544;DHT22;30418;51.45933468;7.33152330;2023-06-14T02:33:23;24.00;34.30
9544;DHT22;30418;51.45933468;7.33152330;2023-06-14T02:35:52;24.00;34.40
9544;DHT22;30418;51.45933468;7.33152330;2023-06-14T02:38:21;24.00;34.40
9544;DHT22;30418;51.45933468;7.33152330;2023-06-14T02:40:50;24.00;34.50
9544;DHT22;30418;51.45933468;7.33152330;2023-06-14T02:43:19;23.90;34.40
9544;DHT22;30418;51.45933468;7.33152330;2023-06-14T02:45:48;23.90;34.50
9544;DHT22;30418;51.45933468;7.33152330;2023-06-14T02:48:18;23.80;34.40
9544;DHT22;30418;51.45933468;7.33152330;2023-06-14T02:50:46;23.80;34.50
9544;DHT22;30418;51.45933468;7.33152330;2023-06-14T02:53:15;23.80;34.60
9544;DHT22;30418;51.45933468;7.33152330;2023-06-14T02:55:44;23.80;34.60
9544;DHT22;30418;51.45933468;7.33152330;2023-06-14T02:58:14;23.80;34.60
9544;DHT22;30418;51.45933468;7.33152330;2023-06-14T03:00:43;23.70;34.60
9544;DHT22;30418;51.45933468;7.33152330;2023-06-14T03:03:12;23.70;34.70
9544;DHT22;30418;51.45933468;7.33152330;2023-06-14T03:05:51;23.60;34.60
9544;DHT22;30418;51.45933468;7.33152330;2023-06-14T03:08:24;23.60;34.80
9544;DHT22;30418;51.45933468;7.33152330;2023-06-14T03:10:59;23.60;34.80
9544;DHT22;30418;51.45933468;7.33152330;2023-06-14T03:13:30;23.60;34.80
9544;DHT22;30418;51.45933468;7.33152330;2023-06-14T03:15:59;23.60;34.90
9544;DHT22;30418;51.45933468;7.33152330;2023-06-14T03:18:32;23.60;34.90
9544;DHT22;30418;51.45933468;7.33152330;2023-06-14T03:21:05;23.50;34.80
9544;DHT22;30418;51.45933468;7.33152330;2023-06-14T03:23:34;23.50;34.80
9544;DHT22;30418;51.45933468;7.33152330;2023-06-14T03:26:03;23.50;34.80
9544;DHT22;30418;51.45933468;7.33152330;2023-06-14T03:28:33;23.50;34.80
9544;DHT22;30418;51.45933468;7.33152330;2023-06-14T03:31:01;23.40;34.80
9544;DHT22;30418;51.45933468;7.33152330;2023-06-14T03:33:32;23.40;34.80
9544;DHT22;30418;51.45933468;7.33152330;2023-06-14T03:36:01;23.40;34.80
9544;DHT22;30418;51.45933468;7.33152330;2023-06-14T03:38:32;23.40;34.80
9544;DHT22;30418;51.45933468;7.33152330;2023-06-14T03:41:03;23.30;34.80
9544;DHT22;30418;51.45933468;7.33152330;2023-06-14T03:43:32;23.30;34.80
9544;DHT22;30418;51.45933468;7.33152330;2023-06-14T03:46:02;23.30;35.00
9544;DHT22;30418;51.45933468;7.33152330;2023-06-14T03:48:33;23.30;35.00
9544;DHT22;30418;51.45933468;7.33152330;2023-06-14T03:51:02;23.30;35.00
9544;DHT22;30418;51.45933468;7.33152330;2023-06-14T03:53:32;23.30;35.00
9544;DHT22;30418;51.45933468;7.33152330;2023-06-14T03:56:10;23.30;35.10
9544;DHT22;30418;51.45933468;7.33152330;2023-06-14T03:58:42;23.30;35.00
9544;DHT22;30418;51.45933468;7.33152330;2023-06-14T04:01:11;23.30;35.00
9544;DHT22;30418;51.45933468;7.33152330;2023-06-14T04:03:40;23.20;34.90
9544;DHT22;30418;51.45933468;7.33152330;2023-06-14T04:06:08;23.30;35.10
9544;DHT22;30418;51.45933468;7.33152330;2023-06-14T04:08:39;23.20;35.00
9544;DHT22;30418;51.45933468;7.33152330;2023-06-14T04:11:08;23.20;35.10
9544;DHT22;30418;51.45933468;7.33152330;2023-06-14T04:13:36;23.20;35.00
9544;DHT22;30418;51.45933468;7.33152330;2023-06-14T04:16:06;23.20;35.10
9544;DHT22;30418;51.45933468;7.33152330;2023-06-14T04:18:36;23.20;35.20
9544;DHT22;30418;51.45933468;7.33152330;2023-06-14T04:21:04;23.20;35.30
9544;DHT22;30418;51.45933468;7.33152330;2023-06-14T04:23:33;23.20;35.30
9544;DHT22;30418;51.45933468;7.33152330;2023-06-14T04:26:03;23.20;35.40
9544;DHT22;30418;51.45933468;7.33152330;2023-06-14T04:28:32;23.20;35.50
9544;DHT22;30418;51.45933468;7.33152330;2023-06-14T04:31:09;23.20;35.40
9544;DHT22;30418;51.45933468;7.33152330;2023-06-14T04:33:38;23.20;35.50
9544;DHT22;30418;51.45933468;7.33152330;2023-06-14T04:36:15;23.20;35.50
9544;DHT22;30418;51.45933468;7.33152330;2023-06-14T04:38:47;23.20;35.50
9544;DHT22;30418;51.45933468;7.33152330;2023-06-14T04:41:17;23.20;35.60
9544;DHT22;30418;51.45933468;7.33152330;2023-06-14T04:43:46;23.20;35.60
9544;DHT22;30418;51.45933468;7.33152330;2023-06-14T04:46:17;23.20;35.60
9544;DHT22;30418;51.45933468;7.33152330;2023-06-14T04:48:46;23.20;35.70
9544;DHT22;30418;51.45933468;7.33152330;2023-06-14T04:51:17;23.20;35.70
9544;DHT22;30418;51.45933468;7.33152330;2023-06-14T04:53:48;23.20;35.80
9544;DHT22;30418;51.45933468;7.33152330;2023-06-14T04:56:18;23.20;35.90
9544;DHT22;30418;51.45933468;7.33152330;2023-06-14T04:58:50;23.20;35.90
9544;DHT22;30418;51.45933468;7.33152330;2023-06-14T05:01:20;23.20;36.00
9544;DHT22;30418;51.45933468;7.33152330;2023-06-14T05:03:50;23.20;36.00
9544;DHT22;30418;51.45933468;7.33152330;2023-06-14T05:06:19;23.20;36.00
9544;DHT22;30418;51.45933468;7.33152330;2023-06-14T05:08:48;23.10;35.90
9544;DHT22;30418;51.45933468;7.33152330;2023-06-14T05:11:18;23.10;36.10
9544;DHT22;30418;51.45933468;7.33152330;2023-06-14T05:13:47;23.20;36.20
9544;DHT22;30418;51.45933468;7.33152330;2023-06-14T05:16:17;23.20;36.20
9544;DHT22;30418;51.45933468;7.33152330;2023-06-14T05:18:46;23.10;36.20
9544;DHT22;30418;51.45933468;7.33152330;2023-06-14T05:21:15;23.20;36.40
9544;DHT22;30418;51.45933468;7.33152330;2023-06-14T05:23:44;23.10;36.30
9544;DHT22;30418;51.45933468;7.33152330;2023-06-14T05:26:13;23.10;36.40
9544;DHT22;30418;51.45933468;7.33152330;2023-06-14T05:28:43;23.20;36.60
9544;DHT22;30418;51.45933468;7.33152330;2023-06-14T05:31:11;23.10;36.60
9544;DHT22;30418;51.45933468;7.33152330;2023-06-14T05:33:41;23.20;36.70
9544;DHT22;30418;51.45933468;7.33152330;2023-06-14T05:36:09;23.20;36.80
9544;DHT22;30418;51.45933468;7.33152330;2023-06-14T05:38:38;23.20;36.80
9544;DHT22;30418;51.45933468;7.33152330;2023-06-14T05:41:06;23.20;36.80
9544;DHT22;30418;51.45933468;7.33152330;2023-06-14T05:43:35;23.20;36.70
9544;DHT22;30418;51.45933468;7.33152330;2023-06-14T05:46:04;23.20;36.80
9544;DHT22;30418;51.45933468;7.33152330;2023-06-14T05:48:33;23.20;36.80
9544;DHT22;30418;51.45933468;7.33152330;2023-06-14T05:51:02;23.20;36.80
9544;DHT22;30418;51.45933468;7.33152330;2023-06-14T05:53:30;23.20;36.70
9544;DHT22;30418;51.45933468;7.33152330;2023-06-14T05:55:58;23.30;36.90
9544;DHT22;30418;51.45933468;7.33152330;2023-06-14T05:58:28;23.30;36.90
9544;DHT22;30418;51.45933468;7.33152330;2023-06-14T06:00:56;23.30;37.00
9544;DHT22;30418;51.45933468;7.33152330;2023-06-14T06:03:26;23.30;37.10
9544;DHT22;30418;51.45933468;7.33152330;2023-06-14T06:05:56;23.30;37.10
9544;DHT22;30418;51.45933468;7.33152330;2023-06-14T06:08:25;23.30;37.00
9544;DHT22;30418;51.45933468;7.33152330;2023-06-14T06:10:54;23.30;37.00
9544;DHT22;30418;51.45933468;7.33152330;2023-06-14T06:13:22;23.40;37.00
9544;DHT22;30418;51.45933468;7.33152330;2023-06-14T06:15:51;23.30;37.00
9544;DHT22;30418;51.45933468;7.33152330;2023-06-14T06:18:19;23.40;37.10
9544;DHT22;30418;51.45933468;7.33152330;2023-06-14T06:20:49;23.40;37.30
9544;DHT22;30418;51.45933468;7.33152330;2023-06-14T06:23:18;23.40;37.20
9544;DHT22;30418;51.45933468;7.33152330;2023-06-14T06:25:46;23.40;37.10
9544;DHT22;30418;51.45933468;7.33152330;2023-06-14T06:28:15;23.40;37.10
9544;DHT22;30418;51.45933468;7.33152330;2023-06-14T06:30:44;23.50;37.20
9544;DHT22;30418;51.45933468;7.33152330;2023-06-14T06:33:13;23.50;37.20
9544;DHT22;30418;51.45933468;7.33152330;2023-06-14T06:35:42;23.50;37.20
9544;DHT22;30418;51.45933468;7.33152330;2023-06-14T06:38:11;23.50;37.30
9544;DHT22;30418;51.45933468;7.33152330;2023-06-14T06:40:40;23.50;37.50
9544;DHT22;30418;51.45933468;7.33152330;2023-06-14T06:43:09;23.60;37.50
9544;DHT22;30418;51.45933468;7.33152330;2023-06-14T06:45:45;23.60;37.50
9544;DHT22;30418;51.45933468;7.33152330;2023-06-14T06:48:13;23.60;37.40
9544;DHT22;30418;51.45933468;7.33152330;2023-06-14T06:50:42;23.60;37.40
9544;DHT22;30418;51.45933468;7.33152330;2023-06-14T06:53:13;23.70;37.40
9544;DHT22;30418;51.45933468;7.33152330;2023-06-14T06:55:49;23.70;37.50
9544;DHT22;30418;51.45933468;7.33152330;2023-06-14T06:58:18;23.70;37.30
9544;DHT22;30418;51.45933468;7.33152330;2023-06-14T07:00:49;23.70;37.30
9544;DHT22;30418;51.45933468;7.33152330;2023-06-14T07:03:17;23.70;37.30
9544;DHT22;30418;51.45933468;7.33152330;2023-06-14T07:05:46;23.70;37.10
9544;DHT22;30418;51.45933468;7.33152330;2023-06-14T07:08:16;23.70;37.10
9544;DHT22;30418;51.45933468;7.33152330;2023-06-14T07:10:45;23.70;37.10
9544;DHT22;30418;51.45933468;7.33152330;2023-06-14T07:13:14;23.70;37.30
9544;DHT22;30418;51.45933468;7.33152330;2023-06-14T07:15:42;23.80;37.30
9544;DHT22;30418;51.45933468;7.33152330;2023-06-14T07:18:11;23.70;37.10
9544;DHT22;30418;51.45933468;7.33152330;2023-06-14T07:20:42;23.70;37.10
9544;DHT22;30418;51.45933468;7.33152330;2023-06-14T07:23:11;23.80;37.10
9544;DHT22;30418;51.45933468;7.33152330;2023-06-14T07:25:40;23.70;37.10
9544;DHT22;30418;51.45933468;7.33152330;2023-06-14T07:28:09;23.80;37.20
9544;DHT22;30418;51.45933468;7.33152330;2023-06-14T07:30:38;23.80;37.10
9544;DHT22;30418;51.45933468;7.33152330;2023-06-14T07:33:07;23.80;37.20
9544;DHT22;30418;51.45933468;7.33152330;2023-06-14T07:35:37;23.80;37.20
9544;DHT22;30418;51.45933468;7.33152330;2023-06-14T07:38:08;23.80;37.30
9544;DHT22;30418;51.45933468;7.33152330;2023-06-14T07:40:37;23.80;37.30
9544;DHT22;30418;51.45933468;7.33152330;2023-06-14T07:43:07;23.80;37.30
9544;DHT22;30418;51.45933468;7.33152330;2023-06-14T07:45:35;23.80;37.30
9544;DHT22;30418;51.45933468;7.33152330;2023-06-14T07:48:04;23.90;37.30
9544;DHT22;30418;51.45933468;7.33152330;2023-06-14T07:50:33;23.90;37.30
9544;DHT22;30418;51.45933468;7.33152330;2023-06-14T07:53:02;23.90;37.20
9544;DHT22;30418;51.45933468;7.33152330;2023-06-14T07:55:30;24.00;37.30
9544;DHT22;30418;51.45933468;7.33152330;2023-06-14T07:58:13;24.00;37.40
9544;DHT22;30418;51.45933468;7.33152330;2023-06-14T08:00:42;24.00;37.50
9544;DHT22;30418;51.45933468;7.33152330;2023-06-14T08:03:10;24.10;37.50
9544;DHT22;30418;51.45933468;7.33152330;2023-06-14T08:05:39;24.10;37.50
9544;DHT22;30418;51.45933468;7.33152330;2023-06-14T08:08:07;24.10;37.40
9544;DHT22;30418;51.45933468;7.33152330;2023-06-14T08:10:36;24.20;37.30
9544;DHT22;30418;51.45933468;7.33152330;2023-06-14T08:13:05;24.30;37.30
9544;DHT22;30418;51.45933468;7.33152330;2023-06-14T08:15:35;24.30;37.10
9544;DHT22;30418;51.45933468;7.33152330;2023-06-14T08:18:04;24.40;37.00
9544;DHT22;30418;51.45933468;7.33152330;2023-06-14T08:20:32;24.40;36.90
9544;DHT22;30418;51.45933468;7.33152330;2023-06-14T08:23:02;24.50;36.70
9544;DHT22;30418;51.45933468;7.33152330;2023-06-14T08:25:32;24.60;36.70
9544;DHT22;30418;51.45933468;7.33152330;2023-06-14T08:28:00;24.60;36.60
9544;DHT22;30418;51.45933468;7.33152330;2023-06-14T08:30:29;24.60;36.60
9544;DHT22;30418;51.45933468;7.33152330;2023-06-14T08:32:59;24.70;36.50
9544;DHT22;30418;51.45933468;7.33152330;2023-06-14T08:35:41;24.80;36.50
9544;DHT22;30418;51.45933468;7.33152330;2023-06-14T08:38:10;24.80;36.50
9544;DHT22;30418;51.45933468;7.33152330;2023-06-14T08:40:40;24.90;36.50
9544;DHT22;30418;51.45933468;7.33152330;2023-06-14T08:43:10;24.90;36.20
9544;DHT22;30418;51.45933468;7.33152330;2023-06-14T08:45:39;25.00;36.20
9544;DHT22;30418;51.45933468;7.33152330;2023-06-14T08:48:09;25.00;36.10
9544;DHT22;30418;51.45933468;7.33152330;2023-06-14T08:50:40;25.10;35.90
9544;DHT22;30418;51.45933468;7.33152330;2023-06-14T08:53:11;25.20;36.00
9544;DHT22;30418;51.45933468;7.33152330;2023-06-14T08:55:47;25.20;35.80
9544;DHT22;30418;51.45933468;7.33152330;2023-06-14T08:58:17;25.20;35.60
9544;DHT22;30418;51.45933468;7.33152330;2023-06-14T09:00:46;25.20;35.40
9544;DHT22;30418;51.45933468;7.33152330;2023-06-14T09:03:16;25.20;35.40
9544;DHT22;30418;51.45933468;7.33152330;2023-06-14T09:05:48;25.20;35.40
9544;DHT22;30418;51.45933468;7.33152330;2023-06-14T09:08:16;25.20;35.50
9544;DHT22;30418;51.45933468;7.33152330;2023-06-14T09:10:46;25.30;35.60
9544;DHT22;30418;51.45933468;7.33152330;2023-06-14T09:13:14;25.30;35.40
9544;DHT22;30418;51.45933468;7.33152330;2023-06-14T09:15:45;25.40;35.30
9544;DHT22;30418;51.45933468;7.33152330;2023-06-14T09:18:15;25.40;35.20
9544;DHT22;30418;51.45933468;7.33152330;2023-06-14T09:20:44;25.40;35.30
9544;DHT22;30418;51.45933468;7.33152330;2023-06-14T09:23:14;25.50;35.10
9544;DHT22;30418;51.45933468;7.33152330;2023-06-14T09:25:50;25.50;34.90
9544;DHT22;30418;51.45933468;7.33152330;2023-06-14T09:28:18;25.60;35.00
9544;DHT22;30418;51.45933468;7.33152330;2023-06-14T09:30:50;25.60;34.80
9544;DHT22;30418;51.45933468;7.33152330;2023-06-14T09:33:20;25.60;34.80
9544;DHT22;30418;51.45933468;7.33152330;2023-06-14T09:35:51;25.60;34.70
9544;DHT22;30418;51.45933468;7.33152330;2023-06-14T09:38:20;25.70;34.70
9544;DHT22;30418;51.45933468;7.33152330;2023-06-14T09:40:50;25.70;34.90
9544;DHT22;30418;51.45933468;7.33152330;2023-06-14T09:43:19;25.80;34.80
9544;DHT22;30418;51.45933468;7.33152330;2023-06-14T09:45:50;25.80;34.80
9544;DHT22;30418;51.45933468;7.33152330;2023-06-14T09:48:21;25.90;34.80
9544;DHT22;30418;51.45933468;7.33152330;2023-06-14T09:50:50;26.00;34.90
9544;DHT22;30418;51.45933468;7.33152330;2023-06-14T09:53:21;26.00;35.00
9544;DHT22;30418;51.45933468;7.33152330;2023-06-14T09:55:52;26.10;35.10
9544;DHT22;30418;51.45933468;7.33152330;2023-06-14T09:58:26;26.20;35.20
9544;DHT22;30418;51.45933468;7.33152330;2023-06-14T10:00:57;26.30;35.10
9544;DHT22;30418;51.45933468;7.33152330;2023-06-14T10:03:28;26.40;35.00
9544;DHT22;30418;51.45933468;7.33152330;2023-06-14T10:06:16;26.40;35.00
9544;DHT22;30418;51.45933468;7.33152330;2023-06-14T10:08:45;26.50;35.00
9544;DHT22;30418;51.45933468;7.33152330;2023-06-14T10:11:14;26.50;34.80
9544;DHT22;30418;51.45933468;7.33152330;2023-06-14T10:13:43;26.60;34.70
9544;DHT22;30418;51.45933468;7.33152330;2023-06-14T10:16:16;26.60;34.70
9544;DHT22;30418;51.45933468;7.33152330;2023-06-14T10:19:02;26.70;34.80
9544;DHT22;30418;51.45933468;7.33152330;2023-06-14T10:21:43;26.70;35.00
9544;DHT22;30418;51.45933468;7.33152330;2023-06-14T10:24:17;26.80;34.90
9544;DHT22;30418;51.45933468;7.33152330;2023-06-14T10:26:52;26.80;34.80
9544;DHT22;30418;51.45933468;7.33152330;2023-06-14T10:29:26;26.90;35.30
9544;DHT22;30418;51.45933468;7.33152330;2023-06-14T10:32:00;26.90;34.60
9544;DHT22;30418;51.45933468;7.33152330;2023-06-14T10:34:32;26.90;34.50
9544;DHT22;30418;51.45933468;7.33152330;2023-06-14T10:37:05;26.90;34.50
9544;DHT22;30418;51.45933468;7.33152330;2023-06-14T10:39:39;26.90;34.50
9544;DHT22;30418;51.45933468;7.33152330;2023-06-14T10:42:09;26.90;34.50
9544;DHT22;30418;51.45933468;7.33152330;2023-06-14T10:44:49;26.90;34.50
9544;DHT22;30418;51.45933468;7.33152330;2023-06-14T10:47:24;27.00;34.60
9544;DHT22;30418;51.45933468;7.33152330;2023-06-14T10:49:57;27.00;34.60
9544;DHT22;30418;51.45933468;7.33152330;2023-06-14T10:52:33;27.00;34.60
9544;DHT22;30418;51.45933468;7.33152330;2023-06-14T10:55:08;27.10;34.60
9544;DHT22;30418;51.45933468;7.33152330;2023-06-14T10:57:41;27.10;34.50
9544;DHT22;30418;51.45933468;7.33152330;2023-06-14T11:00:19;27.10;34.50
9544;DHT22;30418;51.45933468;7.33152330;2023-06-14T11:03:31;27.20;34.70
9544;DHT22;30418;51.45933468;7.33152330;2023-06-14T11:06:15;27.20;34.70
9544;DHT22;30418;51.45933468;7.33152330;2023-06-14T11:09:05;27.30;34.70
9544;DHT22;30418;51.45933468;7.33152330;2023-06-14T11:12:00;27.30;34.70
9544;DHT22;30418;51.45933468;7.33152330;2023-06-14T11:14:30;27.40;34.50
9544;DHT22;30418;51.45933468;7.33152330;2023-06-14T11:16:59;27.40;34.20
9544;DHT22;30418;51.45933468;7.33152330;2023-06-14T11:19:27;27.50;34.30
9544;DHT22;30418;51.45933468;7.33152330;2023-06-14T11:21:59;27.50;34.40
9544;DHT22;30418;51.45933468;7.33152330;2023-06-14T11:24:27;27.50;34.50
9544;DHT22;30418;51.45933468;7.33152330;2023-06-14T11:26:56;27.60;34.40
9544;DHT22;30418;51.45933468;7.33152330;2023-06-14T11:29:29;27.60;34.20
9544;DHT22;30418;51.45933468;7.33152330;2023-06-14T11:31:58;27.60;34.00
9544;DHT22;30418;51.45933468;7.33152330;2023-06-14T11:34:27;27.70;34.10
9544;DHT22;30418;51.45933468;7.33152330;2023-06-14T11:36:57;27.70;34.10
9544;DHT22;30418;51.45933468;7.33152330;2023-06-14T11:39:27;27.80;34.00
9544;DHT22;30418;51.45933468;7.33152330;2023-06-14T11:41:56;27.80;34.00
9544;DHT22;30418;51.45933468;7.33152330;2023-06-14T11:44:28;27.80;33.80
9544;DHT22;30418;51.45933468;7.33152330;2023-06-14T11:46:57;27.80;33.80
9544;DHT22;30418;51.45933468;7.33152330;2023-06-14T11:49:25;27.90;33.90
9544;DHT22;30418;51.45933468;7.33152330;2023-06-14T11:51:55;27.90;33.80
9544;DHT22;30418;51.45933468;7.33152330;2023-06-14T11:54:25;27.90;33.60
9544;DHT22;30418;51.45933468;7.33152330;2023-06-14T11:57:02;28.00;33.60
9544;DHT22;30418;51.45933468;7.33152330;2023-06-14T11:59:31;28.00;33.60
9544;DHT22;30418;51.45933468;7.33152330;2023-06-14T12:02:00;28.00;33.60
9544;DHT22;30418;51.45933468;7.33152330;2023-06-14T12:04:29;28.00;33.50
9544;DHT22;30418;51.45933468;7.33152330;2023-06-14T12:07:08;28.10;33.60
9544;DHT22;30418;51.45933468;7.33152330;2023-06-14T12:09:39;28.10;33.40
9544;DHT22;30418;51.45933468;7.33152330;2023-06-14T12:12:12;28.10;33.40
9544;DHT22;30418;51.45933468;7.33152330;2023-06-14T12:14:41;28.10;33.40
9544;DHT22;30418;51.45933468;7.33152330;2023-06-14T12:17:10;28.10;33.30
9544;DHT22;30418;51.45933468;7.33152330;2023-06-14T12:19:43;28.10;33.40
9544;DHT22;30418;51.45933468;7.33152330;2023-06-14T12:22:12;28.10;33.30
9544;DHT22;30418;51.45933468;7.33152330;2023-06-14T12:24:42;28.10;33.40
9544;DHT22;30418;51.45933468;7.33152330;2023-06-14T12:27:13;28.10;33.40
9544;DHT22;30418;51.45933468;7.33152330;2023-06-14T12:29:42;28.20;33.70
9544;DHT22;30418;51.45933468;7.33152330;2023-06-14T12:32:11;28.20;33.50
9544;DHT22;30418;51.45933468;7.33152330;2023-06-14T12:34:40;28.30;33.50
9544;DHT22;30418;51.45933468;7.33152330;2023-06-14T12:37:09;28.30;33.40
9544;DHT22;30418;51.45933468;7.33152330;2023-06-14T12:39:38;28.40;33.50
9544;DHT22;30418;51.45933468;7.33152330;2023-06-14T12:42:07;28.40;33.30
9544;DHT22;30418;51.45933468;7.33152330;2023-06-14T12:44:37;28.50;33.20
9544;DHT22;30418;51.45933468;7.33152330;2023-06-14T12:47:08;28.50;33.30
9544;DHT22;30418;51.45933468;7.33152330;2023-06-14T12:49:36;28.50;33.00
9544;DHT22;30418;51.45933468;7.33152330;2023-06-14T12:52:05;28.50;33.10
9544;DHT22;30418;51.45933468;7.33152330;2023-06-14T12:54:34;28.60;32.90
9544;DHT22;30418;51.45933468;7.33152330;2023-06-14T12:57:07;28.60;32.80
9544;DHT22;30418;51.45933468;7.33152330;2023-06-14T12:59:38;28.60;32.70
9544;DHT22;30418;51.45933468;7.33152330;2023-06-14T13:02:13;28.70;32.80
9544;DHT22;30418;51.45933468;7.33152330;2023-06-14T13:04:42;28.70;32.50
9544;DHT22;30418;51.45933468;7.33152330;2023-06-14T13:07:11;28.70;32.70
9544;DHT22;30418;51.45933468;7.33152330;2023-06-14T13:09:41;28.70;32.60
9544;DHT22;30418;51.45933468;7.33152330;2023-06-14T13:12:11;28.80;32.50
9544;DHT22;30418;51.45933468;7.33152330;2023-06-14T13:14:41;28.80;32.60
9544;DHT22;30418;51.45933468;7.33152330;2023-06-14T13:17:10;28.80;32.40
9544;DHT22;30418;51.45933468;7.33152330;2023-06-14T13:19:38;28.90;32.60
9544;DHT22;30418;51.45933468;7.33152330;2023-06-14T13:22:07;28.90;32.50
9544;DHT22;30418;51.45933468;7.33152330;2023-06-14T13:24:36;28.90;32.30
9544;DHT22;30418;51.45933468;7.33152330;2023-06-14T13:27:05;29.00;32.30
9544;DHT22;30418;51.45933468;7.33152330;2023-06-14T13:29:34;29.00;32.30
9544;DHT22;30418;51.45933468;7.33152330;2023-06-14T13:32:07;29.00;32.20
9544;DHT22;30418;51.45933468;7.33152330;2023-06-14T13:34:36;29.00;32.00
9544;DHT22;30418;51.45933468;7.33152330;2023-06-14T13:37:04;29.00;32.20
9544;DHT22;30418;51.45933468;7.33152330;2023-06-14T13:39:33;29.00;32.00
9544;DHT22;30418;51.45933468;7.33152330;2023-06-14T13:42:04;29.10;32.00
9544;DHT22;30418;51.45933468;7.33152330;2023-06-14T13:44:33;29.00;31.90
9544;DHT22;30418;51.45933468;7.33152330;2023-06-14T13:47:02;29.00;31.90
9544;DHT22;30418;51.45933468;7.33152330;2023-06-14T13:49:32;29.00;32.10
9544;DHT22;30418;51.45933468;7.33152330;2023-06-14T13:52:02;29.00;31.90